sensor_id;sensor_type;location;lat;lon;timestamp;pressure;altitude;pressure_sealevel;temperature;humidity
61488;BME280;47351;53.326;-6.298;2023-04-05T00:02:30;101527.54;;;10.39;82.75
61488;BME280;47351;53.326;-6.298;2023-04-05T00:05:44;101525.80;;;10.39;82.90
61488;BME280;47351;53.326;-6.298;2023-04-05T00:09:33;101519.80;;;10.38;83.11
61488;BME280;47351;53.326;-6.298;2023-04-05T00:12:51;101509.84;;;10.40;83.24
61488;BME280;47351;53.326;-6.298;2023-04-05T00:15:57;101502.52;;;10.40;83.23
61488;BME280;47351;53.326;-6.298;2023-04-05T00:19:14;101492.38;;;10.39;83.33
61488;BME280;47351;53.326;-6.298;2023-04-05T00:22:08;101485.17;;;10.40;83.31
61488;BME280;47351;53.326;-6.298;2023-04-05T00:25:25;101484.61;;;10.41;83.48
61488;BME280;47351;53.326;-6.298;2023-04-05T00:28:26;101489.77;;;10.41;83.50
61488;BME280;47351;53.326;-6.298;2023-04-05T00:31:17;101479.50;;;10.40;83.75
61488;BME280;47351;53.326;-6.298;2023-04-05T00:34:29;101475.61;;;10.37;84.02
61488;BME280;47351;53.326;-6.298;2023-04-05T00:37:41;101474.14;;;10.34;84.19
61488;BME280;47351;53.326;-6.298;2023-04-05T00:40:52;101463.52;;;10.31;84.49
61488;BME280;47351;53.326;-6.298;2023-04-05T00:44:04;101458.44;;;10.28;84.69
61488;BME280;47351;53.326;-6.298;2023-04-05T00:47:15;101452.31;;;10.27;84.99
61488;BME280;47351;53.326;-6.298;2023-04-05T00:50:27;101451.97;;;10.27;85.28
61488;BME280;47351;53.326;-6.298;2023-04-05T00:53:24;101448.54;;;10.27;85.42
61488;BME280;47351;53.326;-6.298;2023-04-05T00:56:36;101450.91;;;10.26;85.27
61488;BME280;47351;53.326;-6.298;2023-04-05T00:59:50;101448.98;;;10.26;85.26
61488;BME280;47351;53.326;-6.298;2023-04-05T01:03:30;101452.03;;;10.26;85.26
61488;BME280;47351;53.326;-6.298;2023-04-05T01:06:58;101448.80;;;10.26;85.18
61488;BME280;47351;53.326;-6.298;2023-04-05T01:10:21;101441.88;;;10.28;85.32
61488;BME280;47351;53.326;-6.298;2023-04-05T01:13:29;101441.84;;;10.30;85.52
61488;BME280;47351;53.326;-6.298;2023-04-05T01:16:41;101441.40;;;10.33;85.50
61488;BME280;47351;53.326;-6.298;2023-04-05T01:19:52;101437.72;;;10.34;85.47
61488;BME280;47351;53.326;-6.298;2023-04-05T01:23:24;101438.14;;;10.36;85.42
61488;BME280;47351;53.326;-6.298;2023-04-05T01:26:55;101440.38;;;10.36;85.43
61488;BME280;47351;53.326;-6.298;2023-04-05T01:30:04;101433.27;;;10.38;85.48
61488;BME280;47351;53.326;-6.298;2023-04-05T01:33:18;101437.60;;;10.39;85.40
61488;BME280;47351;53.326;-6.298;2023-04-05T01:36:38;101438.92;;;10.40;85.48
61488;BME280;47351;53.326;-6.298;2023-04-05T01:39:34;101436.88;;;10.42;85.60
61488;BME280;47351;53.326;-6.298;2023-04-05T01:42:45;101432.83;;;10.41;85.89
61488;BME280;47351;53.326;-6.298;2023-04-05T01:45:50;101427.77;;;10.39;85.80
61488;BME280;47351;53.326;-6.298;2023-04-05T01:48:55;101425.41;;;10.38;85.77
61488;BME280;47351;53.326;-6.298;2023-04-05T01:52:07;101430.70;;;10.37;85.90
61488;BME280;47351;53.326;-6.298;2023-04-05T01:55:18;101431.73;;;10.37;86.12
61488;BME280;47351;53.326;-6.298;2023-04-05T01:58:20;101427.95;;;10.38;86.17
61488;BME280;47351;53.326;-6.298;2023-04-05T02:01:32;101424.23;;;10.37;86.48
61488;BME280;47351;53.326;-6.298;2023-04-05T02:04:43;101418.13;;;10.36;86.63
61488;BME280;47351;53.326;-6.298;2023-04-05T02:07:53;101405.21;;;10.35;86.62
61488;BME280;47351;53.326;-6.298;2023-04-05T02:11:04;101401.73;;;10.36;86.65
61488;BME280;47351;53.326;-6.298;2023-04-05T02:14:09;101395.39;;;10.37;86.71
61488;BME280;47351;53.326;-6.298;2023-04-05T02:17:20;101391.88;;;10.38;86.83
61488;BME280;47351;53.326;-6.298;2023-04-05T02:20:34;101391.69;;;10.38;86.92
61488;BME280;47351;53.326;-6.298;2023-04-05T02:23:45;101394.13;;;10.37;87.03
61488;BME280;47351;53.326;-6.298;2023-04-05T02:26:56;101389.42;;;10.35;87.46
61488;BME280;47351;53.326;-6.298;2023-04-05T02:30:00;101385.23;;;10.35;87.41
61488;BME280;47351;53.326;-6.298;2023-04-05T02:33:06;101381.90;;;10.34;87.39
61488;BME280;47351;53.326;-6.298;2023-04-05T02:36:12;101382.76;;;10.34;87.45
61488;BME280;47351;53.326;-6.298;2023-04-05T02:39:24;101380.21;;;10.35;87.51
61488;BME280;47351;53.326;-6.298;2023-04-05T02:42:35;101377.00;;;10.35;87.83
61488;BME280;47351;53.326;-6.298;2023-04-05T02:45:41;101372.99;;;10.36;87.78
61488;BME280;47351;53.326;-6.298;2023-04-05T02:48:55;101370.18;;;10.37;87.90
61488;BME280;47351;53.326;-6.298;2023-04-05T02:52:09;101370.31;;;10.39;88.14
61488;BME280;47351;53.326;-6.298;2023-04-05T02:55:15;101373.33;;;10.42;88.22
61488;BME280;47351;53.326;-6.298;2023-04-05T03:01:55;101366.54;;;10.46;88.33
61488;BME280;47351;53.326;-6.298;2023-04-05T03:05:28;101360.15;;;10.47;88.27
61488;BME280;47351;53.326;-6.298;2023-04-05T03:16:26;101352.05;;;10.54;88.21
61488;BME280;47351;53.326;-6.298;2023-04-05T03:20:14;101342.48;;;10.55;88.37
61488;BME280;47351;53.326;-6.298;2023-04-05T03:23:28;101340.39;;;10.54;88.56
61488;BME280;47351;53.326;-6.298;2023-04-05T03:26:44;101334.80;;;10.55;88.41
61488;BME280;47351;53.326;-6.298;2023-04-05T03:34:16;101335.98;;;10.56;88.54
61488;BME280;47351;53.326;-6.298;2023-04-05T03:45:43;101324.14;;;10.58;88.92
61488;BME280;47351;53.326;-6.298;2023-04-05T03:49:09;101325.36;;;10.61;89.11
61488;BME280;47351;53.326;-6.298;2023-04-05T03:52:27;101330.42;;;10.63;89.34
61488;BME280;47351;53.326;-6.298;2023-04-05T03:55:34;101334.27;;;10.66;89.39
61488;BME280;47351;53.326;-6.298;2023-04-05T03:58:45;101327.88;;;10.68;89.52
61488;BME280;47351;53.326;-6.298;2023-04-05T04:02:05;101322.05;;;10.69;89.44
61488;BME280;47351;53.326;-6.298;2023-04-05T04:08:35;101322.19;;;10.70;89.46
61488;BME280;47351;53.326;-6.298;2023-04-05T04:11:52;101323.73;;;10.71;89.91
61488;BME280;47351;53.326;-6.298;2023-04-05T04:15:10;101322.83;;;10.71;90.07
61488;BME280;47351;53.326;-6.298;2023-04-05T04:18:47;101323.30;;;10.71;90.20
61488;BME280;47351;53.326;-6.298;2023-04-05T04:22:40;101320.95;;;10.70;90.32
61488;BME280;47351;53.326;-6.298;2023-04-05T04:25:57;101318.61;;;10.68;90.59
61488;BME280;47351;53.326;-6.298;2023-04-05T04:29:15;101318.52;;;10.66;90.54
61488;BME280;47351;53.326;-6.298;2023-04-05T04:32:39;101324.05;;;10.67;90.72
61488;BME280;47351;53.326;-6.298;2023-04-05T04:36:08;101318.73;;;10.66;90.75
61488;BME280;47351;53.326;-6.298;2023-04-05T04:39:33;101315.04;;;10.66;90.85
61488;BME280;47351;53.326;-6.298;2023-04-05T04:42:54;101314.69;;;10.65;90.92
61488;BME280;47351;53.326;-6.298;2023-04-05T04:50:24;101306.91;;;10.65;91.26
61488;BME280;47351;53.326;-6.298;2023-04-05T04:58:07;101305.45;;;10.69;91.22
61488;BME280;47351;53.326;-6.298;2023-04-05T05:15:10;101292.82;;;10.78;91.08
61488;BME280;47351;53.326;-6.298;2023-04-05T05:18:07;101283.61;;;10.79;91.13
61488;BME280;47351;53.326;-6.298;2023-04-05T05:21:38;101278.59;;;10.82;90.98
61488;BME280;47351;53.326;-6.298;2023-04-05T05:24:49;101275.27;;;10.84;91.03
61488;BME280;47351;53.326;-6.298;2023-04-05T05:28:01;101272.83;;;10.87;90.98
61488;BME280;47351;53.326;-6.298;2023-04-05T05:31:06;101272.02;;;10.88;90.83
61488;BME280;47351;53.326;-6.298;2023-04-05T05:34:20;101275.22;;;10.90;90.81
61488;BME280;47351;53.326;-6.298;2023-04-05T05:44:37;101272.93;;;10.94;90.61
61488;BME280;47351;53.326;-6.298;2023-04-05T05:48:21;101274.85;;;10.98;90.64
61488;BME280;47351;53.326;-6.298;2023-04-05T05:54:59;101277.29;;;11.08;90.64
61488;BME280;47351;53.326;-6.298;2023-04-05T05:58:53;101280.14;;;11.16;90.50
61488;BME280;47351;53.326;-6.298;2023-04-05T06:01:48;101282.95;;;11.22;90.45
61488;BME280;47351;53.326;-6.298;2023-04-05T06:12:37;101277.30;;;11.32;89.93
61488;BME280;47351;53.326;-6.298;2023-04-05T06:31:29;101267.23;;;11.49;89.42
61488;BME280;47351;53.326;-6.298;2023-04-05T06:53:20;101256.11;;;11.75;88.53
61488;BME280;47351;53.326;-6.298;2023-04-05T07:00:08;101254.40;;;11.92;88.35
61488;BME280;47351;53.326;-6.298;2023-04-05T07:07:37;101249.17;;;12.12;88.01
61488;BME280;47351;53.326;-6.298;2023-04-05T07:10:43;101252.18;;;12.16;87.89
61488;BME280;47351;53.326;-6.298;2023-04-05T07:17:11;101264.17;;;12.21;87.69
61488;BME280;47351;53.326;-6.298;2023-04-05T07:20:50;101255.15;;;12.25;87.43
61488;BME280;47351;53.326;-6.298;2023-04-05T07:28:44;101255.95;;;12.42;86.94
61488;BME280;47351;53.326;-6.298;2023-04-05T07:32:42;101243.46;;;12.47;86.95
61488;BME280;47351;53.326;-6.298;2023-04-05T07:36:50;101243.91;;;12.49;86.94
61488;BME280;47351;53.326;-6.298;2023-04-05T07:44:03;101246.95;;;12.57;86.70
61488;BME280;47351;53.326;-6.298;2023-04-05T07:47:09;101243.11;;;12.61;86.60
61488;BME280;47351;53.326;-6.298;2023-04-05T07:57:52;101241.86;;;12.89;85.84
61488;BME280;47351;53.326;-6.298;2023-04-05T08:00:48;101237.12;;;12.96;85.40
61488;BME280;47351;53.326;-6.298;2023-04-05T08:04:04;101236.18;;;13.04;85.27
61488;BME280;47351;53.326;-6.298;2023-04-05T08:10:46;101235.23;;;13.28;84.92
61488;BME280;47351;53.326;-6.298;2023-04-05T08:13:56;101237.77;;;13.45;84.60
61488;BME280;47351;53.326;-6.298;2023-04-05T08:17:16;101243.14;;;13.60;84.30
61488;BME280;47351;53.326;-6.298;2023-04-05T08:20:13;101241.33;;;13.73;83.79
61488;BME280;47351;53.326;-6.298;2023-04-05T08:23:18;101241.92;;;13.91;83.25
61488;BME280;47351;53.326;-6.298;2023-04-05T08:26:34;101235.15;;;14.12;82.48
61488;BME280;47351;53.326;-6.298;2023-04-05T08:29:47;101236.07;;;14.36;81.71
61488;BME280;47351;53.326;-6.298;2023-04-05T08:33:07;101237.55;;;14.42;80.84
61488;BME280;47351;53.326;-6.298;2023-04-05T08:36:38;101235.22;;;14.40;80.61
61488;BME280;47351;53.326;-6.298;2023-04-05T08:39:44;101231.19;;;14.34;80.70
61488;BME280;47351;53.326;-6.298;2023-04-05T09:02:31;101223.73;;;14.04;80.89
61488;BME280;47351;53.326;-6.298;2023-04-05T09:08:49;101218.05;;;14.15;80.71
61488;BME280;47351;53.326;-6.298;2023-04-05T09:11:41;101219.75;;;14.27;80.13
61488;BME280;47351;53.326;-6.298;2023-04-05T09:14:33;101218.15;;;14.44;79.74
61488;BME280;47351;53.326;-6.298;2023-04-05T09:17:25;101212.02;;;14.69;78.98
61488;BME280;47351;53.326;-6.298;2023-04-05T09:20:17;101205.48;;;15.00;78.21
61488;BME280;47351;53.326;-6.298;2023-04-05T09:23:08;101205.77;;;15.29;77.44
61488;BME280;47351;53.326;-6.298;2023-04-05T09:25:59;101203.41;;;15.59;76.89
61488;BME280;47351;53.326;-6.298;2023-04-05T09:28:50;101202.06;;;15.90;75.99
61488;BME280;47351;53.326;-6.298;2023-04-05T09:31:41;101205.51;;;16.22;75.00
61488;BME280;47351;53.326;-6.298;2023-04-05T09:34:32;101209.82;;;16.54;74.09
61488;BME280;47351;53.326;-6.298;2023-04-05T09:37:24;101209.95;;;16.65;72.59
61488;BME280;47351;53.326;-6.298;2023-04-05T09:40:15;101217.48;;;16.55;72.02
61488;BME280;47351;53.326;-6.298;2023-04-05T09:43:05;101216.85;;;16.36;72.14
61488;BME280;47351;53.326;-6.298;2023-04-05T09:45:56;101218.60;;;16.15;72.55
61488;BME280;47351;53.326;-6.298;2023-04-05T09:48:47;101212.77;;;15.93;72.94
61488;BME280;47351;53.326;-6.298;2023-04-05T09:51:39;101217.16;;;15.74;72.97
61488;BME280;47351;53.326;-6.298;2023-04-05T09:54:39;101217.92;;;15.58;73.42
61488;BME280;47351;53.326;-6.298;2023-04-05T09:57:35;101218.81;;;15.50;73.71
61488;BME280;47351;53.326;-6.298;2023-04-05T10:00:25;101215.05;;;15.59;73.95
61488;BME280;47351;53.326;-6.298;2023-04-05T10:03:16;101214.20;;;15.84;73.68
61488;BME280;47351;53.326;-6.298;2023-04-05T10:06:07;101213.79;;;16.10;72.93
61488;BME280;47351;53.326;-6.298;2023-04-05T10:08:58;101215.20;;;16.33;72.21
61488;BME280;47351;53.326;-6.298;2023-04-05T10:11:49;101209.46;;;16.63;71.13
61488;BME280;47351;53.326;-6.298;2023-04-05T10:14:40;101209.02;;;17.02;70.19
61488;BME280;47351;53.326;-6.298;2023-04-05T10:17:33;101205.83;;;17.45;69.51
61488;BME280;47351;53.326;-6.298;2023-04-05T10:20:26;101200.68;;;18.88;67.44
61488;BME280;47351;53.326;-6.298;2023-04-05T10:23:20;101195.65;;;19.84;64.84
61488;BME280;47351;53.326;-6.298;2023-04-05T10:26:12;101194.84;;;20.10;62.58
61488;BME280;47351;53.326;-6.298;2023-04-05T10:29:08;101199.48;;;20.23;61.70
61488;BME280;47351;53.326;-6.298;2023-04-05T10:32:01;101196.89;;;20.13;61.22
61488;BME280;47351;53.326;-6.298;2023-04-05T10:34:56;101198.98;;;20.04;60.85
61488;BME280;47351;53.326;-6.298;2023-04-05T10:37:59;101198.13;;;19.78;60.93
61488;BME280;47351;53.326;-6.298;2023-04-05T10:40:54;101196.71;;;19.64;61.06
61488;BME280;47351;53.326;-6.298;2023-04-05T10:43:46;101192.05;;;19.56;60.60
61488;BME280;47351;53.326;-6.298;2023-04-05T10:46:39;101188.63;;;19.33;60.73
61488;BME280;47351;53.326;-6.298;2023-04-05T10:49:36;101190.48;;;19.12;60.62
61488;BME280;47351;53.326;-6.298;2023-04-05T10:52:27;101193.77;;;18.90;60.66
61488;BME280;47351;53.326;-6.298;2023-04-05T10:55:21;101188.52;;;18.77;61.01
61488;BME280;47351;53.326;-6.298;2023-04-05T10:58:13;101187.00;;;18.82;60.90
61488;BME280;47351;53.326;-6.298;2023-04-05T11:01:04;101185.95;;;18.94;60.76
61488;BME280;47351;53.326;-6.298;2023-04-05T11:03:56;101187.67;;;18.90;60.82
61488;BME280;47351;53.326;-6.298;2023-04-05T11:07:12;101188.11;;;19.05;60.98
61488;BME280;47351;53.326;-6.298;2023-04-05T11:10:04;101189.13;;;19.44;59.95
61488;BME280;47351;53.326;-6.298;2023-04-05T11:13:05;101188.10;;;19.62;59.55
61488;BME280;47351;53.326;-6.298;2023-04-05T11:16:08;101188.75;;;19.66;58.83
61488;BME280;47351;53.326;-6.298;2023-04-05T11:18:59;101183.48;;;19.66;58.94
61488;BME280;47351;53.326;-6.298;2023-04-05T11:21:49;101179.23;;;19.80;58.64
61488;BME280;47351;53.326;-6.298;2023-04-05T11:24:55;101176.94;;;20.10;58.17
61488;BME280;47351;53.326;-6.298;2023-04-05T11:28:42;101174.98;;;20.09;57.93
61488;BME280;47351;53.326;-6.298;2023-04-05T11:35:04;101171.33;;;19.71;58.24
61488;BME280;47351;53.326;-6.298;2023-04-05T11:38:04;101173.36;;;19.51;57.88
61488;BME280;47351;53.326;-6.298;2023-04-05T11:41:12;101165.52;;;19.60;57.98
61488;BME280;47351;53.326;-6.298;2023-04-05T11:44:05;101165.98;;;19.71;57.44
61488;BME280;47351;53.326;-6.298;2023-04-05T11:47:17;101158.79;;;19.68;57.79
61488;BME280;47351;53.326;-6.298;2023-04-05T11:50:09;101160.83;;;19.52;58.03
61488;BME280;47351;53.326;-6.298;2023-04-05T11:53:13;101163.50;;;19.23;58.64
61488;BME280;47351;53.326;-6.298;2023-04-05T11:56:08;101156.02;;;18.82;59.21
61488;BME280;47351;53.326;-6.298;2023-04-05T11:59:00;101153.17;;;18.33;59.94
61488;BME280;47351;53.326;-6.298;2023-04-05T12:01:58;101154.65;;;17.91;61.17
61488;BME280;47351;53.326;-6.298;2023-04-05T12:04:53;101155.45;;;17.57;61.98
61488;BME280;47351;53.326;-6.298;2023-04-05T12:07:48;101148.88;;;17.28;62.56
61488;BME280;47351;53.326;-6.298;2023-04-05T12:10:55;101145.52;;;17.05;63.36
61488;BME280;47351;53.326;-6.298;2023-04-05T12:13:46;101144.73;;;16.96;63.97
61488;BME280;47351;53.326;-6.298;2023-04-05T12:16:36;101141.11;;;16.88;64.11
61488;BME280;47351;53.326;-6.298;2023-04-05T12:19:43;101139.08;;;16.83;64.38
61488;BME280;47351;53.326;-6.298;2023-04-05T12:22:34;101136.45;;;16.82;64.78
61488;BME280;47351;53.326;-6.298;2023-04-05T12:25:39;101134.40;;;16.82;64.91
61488;BME280;47351;53.326;-6.298;2023-04-05T12:31:37;101129.00;;;16.71;65.50
61488;BME280;47351;53.326;-6.298;2023-04-05T12:34:35;101119.87;;;16.75;66.08
61488;BME280;47351;53.326;-6.298;2023-04-05T12:37:27;101118.21;;;16.87;66.24
61488;BME280;47351;53.326;-6.298;2023-04-05T12:40:20;101122.91;;;16.94;65.85
61488;BME280;47351;53.326;-6.298;2023-04-05T12:43:12;101121.80;;;16.95;65.43
61488;BME280;47351;53.326;-6.298;2023-04-05T12:46:11;101114.95;;;16.99;65.62
61488;BME280;47351;53.326;-6.298;2023-04-05T12:49:10;101111.04;;;17.11;65.56
61488;BME280;47351;53.326;-6.298;2023-04-05T12:52:02;101106.08;;;17.31;65.73
61488;BME280;47351;53.326;-6.298;2023-04-05T12:58:32;101116.83;;;17.47;64.85
61488;BME280;47351;53.326;-6.298;2023-04-05T13:01:23;101118.23;;;17.42;65.04
61488;BME280;47351;53.326;-6.298;2023-04-05T13:04:14;101122.52;;;17.36;64.80
61488;BME280;47351;53.326;-6.298;2023-04-05T13:07:05;101125.05;;;17.32;64.51
61488;BME280;47351;53.326;-6.298;2023-04-05T13:09:56;101128.39;;;17.33;64.38
61488;BME280;47351;53.326;-6.298;2023-04-05T13:12:47;101131.30;;;17.45;64.14
61488;BME280;47351;53.326;-6.298;2023-04-05T13:15:38;101129.59;;;17.57;63.64
61488;BME280;47351;53.326;-6.298;2023-04-05T13:18:29;101124.61;;;17.61;63.72
61488;BME280;47351;53.326;-6.298;2023-04-05T13:21:20;101124.17;;;17.53;63.79
61488;BME280;47351;53.326;-6.298;2023-04-05T13:24:11;101123.73;;;17.38;64.06
61488;BME280;47351;53.326;-6.298;2023-04-05T13:27:02;101130.71;;;17.26;64.36
61488;BME280;47351;53.326;-6.298;2023-04-05T13:30:04;101130.03;;;17.08;64.42
61488;BME280;47351;53.326;-6.298;2023-04-05T13:32:56;101127.77;;;16.93;64.90
61488;BME280;47351;53.326;-6.298;2023-04-05T13:36:39;101126.86;;;16.93;65.01
61488;BME280;47351;53.326;-6.298;2023-04-05T13:39:30;101122.83;;;16.94;64.98
61488;BME280;47351;53.326;-6.298;2023-04-05T13:42:21;101123.42;;;16.92;64.90
61488;BME280;47351;53.326;-6.298;2023-04-05T13:45:12;101124.79;;;16.91;65.12
61488;BME280;47351;53.326;-6.298;2023-04-05T13:48:03;101120.70;;;16.93;65.25
61488;BME280;47351;53.326;-6.298;2023-04-05T13:50:57;101116.73;;;16.92;65.34
61488;BME280;47351;53.326;-6.298;2023-04-05T13:53:47;101110.65;;;16.88;65.31
61488;BME280;47351;53.326;-6.298;2023-04-05T13:56:38;101104.23;;;16.84;65.78
61488;BME280;47351;53.326;-6.298;2023-04-05T13:59:29;101101.02;;;16.79;66.02
61488;BME280;47351;53.326;-6.298;2023-04-05T14:02:20;101097.25;;;16.73;66.31
61488;BME280;47351;53.326;-6.298;2023-04-05T14:05:18;101090.48;;;16.67;66.61
61488;BME280;47351;53.326;-6.298;2023-04-05T14:08:11;101091.55;;;16.63;66.57
61488;BME280;47351;53.326;-6.298;2023-04-05T14:11:02;101084.77;;;16.59;66.68
61488;BME280;47351;53.326;-6.298;2023-04-05T14:13:53;101079.39;;;16.55;66.62
61488;BME280;47351;53.326;-6.298;2023-04-05T14:16:44;101078.13;;;16.51;66.82
61488;BME280;47351;53.326;-6.298;2023-04-05T14:19:34;101084.81;;;16.51;67.10
61488;BME280;47351;53.326;-6.298;2023-04-05T14:22:25;101080.17;;;16.52;67.27
61488;BME280;47351;53.326;-6.298;2023-04-05T14:25:19;101079.41;;;16.53;67.19
61488;BME280;47351;53.326;-6.298;2023-04-05T14:28:10;101083.09;;;16.56;67.34
61488;BME280;47351;53.326;-6.298;2023-04-05T14:31:02;101083.14;;;16.52;67.25
61488;BME280;47351;53.326;-6.298;2023-04-05T14:33:53;101081.23;;;16.44;67.24
61488;BME280;47351;53.326;-6.298;2023-04-05T14:36:46;101079.31;;;16.34;67.46
61488;BME280;47351;53.326;-6.298;2023-04-05T14:39:37;101076.74;;;16.25;67.80
61488;BME280;47351;53.326;-6.298;2023-04-05T14:42:30;101078.92;;;16.17;67.87
61488;BME280;47351;53.326;-6.298;2023-04-05T14:45:36;101077.17;;;16.08;67.87
61488;BME280;47351;53.326;-6.298;2023-04-05T14:48:27;101078.35;;;16.04;68.01
61488;BME280;47351;53.326;-6.298;2023-04-05T14:51:20;101075.68;;;16.04;68.16
61488;BME280;47351;53.326;-6.298;2023-04-05T14:54:11;101071.06;;;16.02;68.20
61488;BME280;47351;53.326;-6.298;2023-04-05T14:57:01;101074.02;;;16.00;68.41
61488;BME280;47351;53.326;-6.298;2023-04-05T14:59:52;101072.77;;;15.92;68.74
61488;BME280;47351;53.326;-6.298;2023-04-05T15:02:43;101069.58;;;15.80;68.82
61488;BME280;47351;53.326;-6.298;2023-04-05T15:05:34;101077.02;;;15.69;69.05
61488;BME280;47351;53.326;-6.298;2023-04-05T15:08:25;101079.08;;;15.58;69.34
61488;BME280;47351;53.326;-6.298;2023-04-05T15:11:19;101076.27;;;15.46;69.97
61488;BME280;47351;53.326;-6.298;2023-04-05T15:14:12;101076.95;;;15.40;70.78
61488;BME280;47351;53.326;-6.298;2023-04-05T15:17:18;101076.44;;;15.34;71.15
61488;BME280;47351;53.326;-6.298;2023-04-05T15:20:10;101078.13;;;15.29;71.88
61488;BME280;47351;53.326;-6.298;2023-04-05T15:23:04;101080.80;;;15.21;72.32
61488;BME280;47351;53.326;-6.298;2023-04-05T15:26:02;101083.55;;;14.98;72.57
61488;BME280;47351;53.326;-6.298;2023-04-05T15:29:01;101090.64;;;14.64;73.11
61488;BME280;47351;53.326;-6.298;2023-04-05T15:31:52;101091.21;;;14.38;73.93
61488;BME280;47351;53.326;-6.298;2023-04-05T15:34:46;101093.70;;;14.20;74.51
61488;BME280;47351;53.326;-6.298;2023-04-05T15:37:37;101098.14;;;14.09;75.29
61488;BME280;47351;53.326;-6.298;2023-04-05T15:40:36;101097.20;;;14.01;75.86
61488;BME280;47351;53.326;-6.298;2023-04-05T15:43:41;101095.14;;;13.92;76.14
61488;BME280;47351;53.326;-6.298;2023-04-05T15:46:34;101096.98;;;13.88;76.56
61488;BME280;47351;53.326;-6.298;2023-04-05T15:49:25;101094.33;;;13.88;77.04
61488;BME280;47351;53.326;-6.298;2023-04-05T15:52:18;101097.63;;;13.94;77.46
61488;BME280;47351;53.326;-6.298;2023-04-05T15:55:09;101095.13;;;13.99;77.57
61488;BME280;47351;53.326;-6.298;2023-04-05T15:58:02;101096.73;;;14.04;77.96
61488;BME280;47351;53.326;-6.298;2023-04-05T16:00:53;101096.20;;;14.02;78.09
61488;BME280;47351;53.326;-6.298;2023-04-05T16:03:44;101093.85;;;13.99;78.13
61488;BME280;47351;53.326;-6.298;2023-04-05T16:06:34;101093.61;;;13.98;78.40
61488;BME280;47351;53.326;-6.298;2023-04-05T16:09:25;101097.86;;;13.89;78.58
61488;BME280;47351;53.326;-6.298;2023-04-05T16:12:16;101095.98;;;13.83;78.84
61488;BME280;47351;53.326;-6.298;2023-04-05T16:15:07;101098.89;;;13.80;78.85
61488;BME280;47351;53.326;-6.298;2023-04-05T16:17:58;101098.95;;;13.74;78.95
61488;BME280;47351;53.326;-6.298;2023-04-05T16:20:49;101099.06;;;13.72;79.07
61488;BME280;47351;53.326;-6.298;2023-04-05T16:23:42;101103.07;;;13.73;79.22
61488;BME280;47351;53.326;-6.298;2023-04-05T16:26:53;101103.30;;;13.80;78.93
61488;BME280;47351;53.326;-6.298;2023-04-05T16:29:44;101102.39;;;13.88;78.67
61488;BME280;47351;53.326;-6.298;2023-04-05T16:32:35;101098.96;;;13.95;78.34
61488;BME280;47351;53.326;-6.298;2023-04-05T16:35:26;101095.51;;;14.08;78.22
61488;BME280;47351;53.326;-6.298;2023-04-05T16:38:19;101084.05;;;14.29;77.61
61488;BME280;47351;53.326;-6.298;2023-04-05T16:41:09;101084.37;;;14.45;76.93
61488;BME280;47351;53.326;-6.298;2023-04-05T16:47:06;101085.66;;;14.82;76.33
61488;BME280;47351;53.326;-6.298;2023-04-05T16:49:57;101095.95;;;15.04;76.08
61488;BME280;47351;53.326;-6.298;2023-04-05T16:52:48;101098.49;;;15.18;75.19
61488;BME280;47351;53.326;-6.298;2023-04-05T16:55:39;101100.08;;;15.19;74.40
61488;BME280;47351;53.326;-6.298;2023-04-05T16:58:29;101099.20;;;15.13;74.29
61488;BME280;47351;53.326;-6.298;2023-04-05T17:01:22;101101.67;;;15.01;74.42
61488;BME280;47351;53.326;-6.298;2023-04-05T17:04:13;101105.98;;;14.81;74.54
61488;BME280;47351;53.326;-6.298;2023-04-05T17:10:24;101106.05;;;14.47;75.14
61488;BME280;47351;53.326;-6.298;2023-04-05T17:13:18;101105.46;;;14.36;75.24
61488;BME280;47351;53.326;-6.298;2023-04-05T17:16:09;101105.00;;;14.34;75.62
61488;BME280;47351;53.326;-6.298;2023-04-05T17:19:02;101107.64;;;14.41;75.55
61488;BME280;47351;53.326;-6.298;2023-04-05T17:22:13;101109.31;;;14.42;75.51
61488;BME280;47351;53.326;-6.298;2023-04-05T17:25:04;101110.38;;;14.28;74.95
61488;BME280;47351;53.326;-6.298;2023-04-05T17:27:55;101104.31;;;14.16;75.13
61488;BME280;47351;53.326;-6.298;2023-04-05T17:34:20;101098.67;;;14.04;75.72
61488;BME280;47351;53.326;-6.298;2023-04-05T17:37:15;101094.75;;;14.04;75.79
61488;BME280;47351;53.326;-6.298;2023-04-05T17:43:34;101091.27;;;13.97;75.05
61488;BME280;47351;53.326;-6.298;2023-04-05T17:46:38;101087.67;;;13.85;74.80
61488;BME280;47351;53.326;-6.298;2023-04-05T17:53:44;101090.58;;;13.77;75.10
61488;BME280;47351;53.326;-6.298;2023-04-05T17:56:35;101086.21;;;13.76;75.13
61488;BME280;47351;53.326;-6.298;2023-04-05T17:59:28;101079.21;;;13.76;75.23
61488;BME280;47351;53.326;-6.298;2023-04-05T18:02:19;101077.10;;;13.76;75.28
61488;BME280;47351;53.326;-6.298;2023-04-05T18:05:17;101079.02;;;13.76;75.44
61488;BME280;47351;53.326;-6.298;2023-04-05T18:08:09;101078.54;;;13.74;75.37
61488;BME280;47351;53.326;-6.298;2023-04-05T18:11:18;101072.27;;;13.72;75.18
61488;BME280;47351;53.326;-6.298;2023-04-05T18:14:18;101065.96;;;13.72;75.31
61488;BME280;47351;53.326;-6.298;2023-04-05T18:17:18;101062.55;;;13.71;75.36
61488;BME280;47351;53.326;-6.298;2023-04-05T18:20:10;101066.00;;;13.67;75.45
61488;BME280;47351;53.326;-6.298;2023-04-05T18:23:01;101064.83;;;13.65;75.58
61488;BME280;47351;53.326;-6.298;2023-04-05T18:25:52;101063.15;;;13.59;75.16
61488;BME280;47351;53.326;-6.298;2023-04-05T18:28:50;101067.16;;;13.52;75.14
61488;BME280;47351;53.326;-6.298;2023-04-05T18:32:08;101068.94;;;13.45;74.99
61488;BME280;47351;53.326;-6.298;2023-04-05T18:35:02;101067.42;;;13.41;75.20
61488;BME280;47351;53.326;-6.298;2023-04-05T18:37:54;101067.66;;;13.39;75.30
61488;BME280;47351;53.326;-6.298;2023-04-05T18:40:47;101066.59;;;13.33;75.07
61488;BME280;47351;53.326;-6.298;2023-04-05T18:43:39;101064.58;;;13.24;74.91
61488;BME280;47351;53.326;-6.298;2023-04-05T18:46:32;101061.98;;;13.15;74.64